Time;durP1;ratioP1;P1;durP2;ratioP2;P2;SDS_P1;SDS_P2;PMS_P1;PMS_P2;Temp;Humidity;BMP_temperature;BMP_pressure;BME280_temperature;BME280_humidity;BME280_pressure;Samples;Min_cycle;Max_cycle;Signal;HPM_P1;HPM_P2
2024/03/27 00:01:26;;;;;;;4.20;1.80;;;6.10;93.10;;;;;;4195650;28;20048;-52
2024/03/27 00:03:27;;;;;;;3.87;2.23;;;6.20;93.20;;;;;;4194180;28;20456;-56
2024/03/27 00:05:28;;;;;;;2.30;1.90;;;6.10;93.20;;;;;;4195907;28;20477;-52
2024/03/27 00:07:30;;;;;;;5.73;2.30;;;6.20;93.20;;;;;;4194230;28;20098;-56
2024/03/27 00:09:31;;;;;;;2.70;1.57;;;6.20;93.40;;;;;;4195275;28;20094;-57
2024/03/27 00:11:33;;;;;;;3.73;1.73;;;6.20;93.40;;;;;;4194186;28;20049;-54
2024/03/27 00:13:34;;;;;;;4.07;1.60;;;6.20;93.50;;;;;;4195134;28;20098;-57
2024/03/27 00:15:35;;;;;;;1.97;1.40;;;6.20;93.40;;;;;;4193986;28;20066;-56
2024/03/27 00:17:36;;;;;;;3.33;1.80;;;6.20;93.50;;;;;;4195508;28;20054;-56
2024/03/27 00:19:38;;;;;;;3.00;1.77;;;6.20;93.60;;;;;;4194479;28;20036;-54
2024/03/27 00:21:39;;;;;;;2.00;1.43;;;6.20;93.80;;;;;;4195254;28;20154;-56
2024/03/27 00:23:41;;;;;;;2.43;1.50;;;6.20;93.80;;;;;;4195119;28;20036;-55
2024/03/27 00:25:42;;;;;;;2.97;1.60;;;6.20;93.80;;;;;;4194715;28;20032;-57
2024/03/27 00:27:44;;;;;;;3.50;1.70;;;6.20;93.90;;;;;;4195208;28;20362;-56
2024/03/27 00:29:45;;;;;;;2.37;1.70;;;6.20;93.90;;;;;;4193934;28;20499;-56
2024/03/27 00:31:46;;;;;;;3.30;1.70;;;6.20;93.90;;;;;;4194950;28;20562;-56
2024/03/27 00:33:47;;;;;;;2.83;2.00;;;6.20;94.10;;;;;;4194193;28;20021;-52
2024/03/27 00:35:56;;;;;;;2.33;1.80;;;6.20;94.10;;;;;;4194997;28;20480;-57
2024/03/27 00:37:57;;;;;;;3.47;1.47;;;6.20;94.30;;;;;;4193863;28;20055;-55
2024/03/27 00:39:58;;;;;;;3.97;1.70;;;6.10;94.50;;;;;;4195218;28;20107;-56
2024/03/27 00:41:59;;;;;;;5.20;1.60;;;6.10;94.70;;;;;;4193725;28;20044;-52
2024/03/27 00:44:01;;;;;;;3.97;1.67;;;6.00;95.00;;;;;;4195198;28;20369;-49
2024/03/27 00:46:03;;;;;;;2.37;1.70;;;5.90;95.00;;;;;;4194287;28;20173;-51
2024/03/27 00:48:05;;;;;;;4.83;1.87;;;5.90;95.40;;;;;;4194499;28;20078;-55
2024/03/27 00:50:08;;;;;;;4.63;1.93;;;5.80;95.60;;;;;;4193664;28;20037;-53
2024/03/27 00:52:09;;;;;;;2.93;1.80;;;5.80;95.60;;;;;;4194785;28;20032;-55
2024/03/27 00:54:10;;;;;;;3.97;1.83;;;5.80;95.70;;;;;;4194307;28;20048;-50
2024/03/27 00:56:11;;;;;;;3.27;1.70;;;5.70;96.00;;;;;;4193996;28;20829;-50
2024/03/27 00:58:12;;;;;;;4.17;2.13;;;5.70;96.10;;;;;;4194349;28;20089;-51
2024/03/27 01:00:18;;;;;;;4.80;2.40;;;5.60;96.30;;;;;;4193753;28;20052;-53
2024/03/27 01:02:20;;;;;;;3.80;1.73;;;5.60;96.40;;;;;;4194896;28;20353;-50
2024/03/27 01:04:21;;;;;;;2.67;1.77;;;5.50;96.60;;;;;;4193151;28;20482;-49
2024/03/27 01:06:23;;;;;;;2.50;1.70;;;5.50;96.60;;;;;;4194030;28;20484;-55
2024/03/27 01:08:24;;;;;;;4.30;1.80;;;5.50;96.80;;;;;;4193382;28;20423;-56
2024/03/27 01:10:25;;;;;;;9.47;2.63;;;5.60;96.80;;;;;;4194819;28;20269;-56
2024/03/27 01:12:26;;;;;;;2.43;1.70;;;5.60;97.20;;;;;;4193329;28;20261;-51
2024/03/27 01:14:27;;;;;;;3.00;1.90;;;5.60;97.00;;;;;;4194507;28;21271;-51
2024/03/27 01:16:29;;;;;;;2.03;1.83;;;5.70;97.10;;;;;;4193708;28;20741;-51
2024/03/27 01:18:30;;;;;;;3.17;2.17;;;5.70;96.90;;;;;;4194765;28;20029;-53
2024/03/27 01:20:32;;;;;;;2.43;1.60;;;5.80;97.00;;;;;;4193230;28;20757;-52
2024/03/27 01:22:33;;;;;;;2.10;1.70;;;5.80;97.00;;;;;;4194086;28;20041;-52
2024/03/27 01:24:34;;;;;;;2.00;1.47;;;5.80;97.00;;;;;;4193446;28;20323;-53
2024/03/27 01:26:36;;;;;;;3.33;1.93;;;5.80;97.10;;;;;;4194129;28;20311;-56
2024/03/27 01:28:38;;;;;;;6.97;2.13;;;5.70;97.30;;;;;;4193726;28;20414;-53
2024/03/27 01:30:39;;;;;;;2.73;2.07;;;5.70;97.40;;;;;;4193813;28;20664;-57
2024/03/27 01:32:40;;;;;;;3.83;2.33;;;5.60;97.70;;;;;;4194353;28;20268;-55
2024/03/27 01:34:41;;;;;;;2.47;1.53;;;5.60;97.90;;;;;;4193377;28;20672;-54
2024/03/27 01:36:43;;;;;;;2.53;1.60;;;5.60;98.00;;;;;;4194497;28;20579;-54
2024/03/27 01:38:45;;;;;;;3.30;1.53;;;5.60;98.10;;;;;;4193099;28;20169;-56
2024/03/27 01:40:47;;;;;;;3.53;1.63;;;5.60;98.20;;;;;;4194006;28;20340;-56
2024/03/27 01:42:58;;;;;;;3.03;1.70;;;5.70;98.10;;;;;;4193334;28;20059;-54
2024/03/27 01:45:00;;;;;;;2.67;1.60;;;5.80;98.10;;;;;;4193829;28;20277;-57
2024/03/27 01:47:02;;;;;;;1.87;1.60;;;5.90;97.90;;;;;;4193908;28;20807;-55
2024/03/27 01:49:03;;;;;;;2.53;1.70;;;5.90;97.80;;;;;;4194354;28;20366;-57
2024/03/27 01:51:05;;;;;;;4.73;1.43;;;6.00;97.80;;;;;;4193077;28;20277;-56
2024/03/27 01:53:10;;;;;;;4.80;1.80;;;6.10;97.80;;;;;;4194384;28;20339;-55
2024/03/27 01:55:12;;;;;;;6.47;1.50;;;6.10;97.80;;;;;;4192336;28;20289;-55
2024/03/27 01:57:13;;;;;;;3.27;2.00;;;6.00;97.90;;;;;;4193846;28;20032;-56
2024/03/27 01:59:15;;;;;;;3.67;1.93;;;6.00;97.90;;;;;;4192746;28;20303;-51
2024/03/27 02:01:16;;;;;;;4.70;1.80;;;6.00;98.10;;;;;;4193612;28;20044;-58
2024/03/27 02:03:18;;;;;;;3.50;2.10;;;5.90;98.30;;;;;;4193240;28;20086;-55
2024/03/27 02:05:20;;;;;;;3.53;1.97;;;5.90;98.40;;;;;;4193079;28;20045;-58
2024/03/27 02:07:23;;;;;;;2.53;1.80;;;5.90;98.60;;;;;;4194294;28;20078;-54
2024/03/27 02:09:26;;;;;;;2.63;1.63;;;5.90;98.50;;;;;;4192787;28;20273;-55
2024/03/27 02:11:27;;;;;;;4.17;2.50;;;5.90;98.60;;;;;;4193773;28;20307;-54
2024/03/27 02:13:28;;;;;;;2.60;1.60;;;5.90;98.80;;;;;;4193263;28;20028;-54
2024/03/27 02:15:30;;;;;;;1.73;1.40;;;5.90;98.70;;;;;;4193550;28;20362;-53
2024/03/27 02:17:31;;;;;;;3.37;1.47;;;5.90;98.50;;;;;;4195203;28;20299;-54
2024/03/27 02:19:32;;;;;;;3.77;2.00;;;6.00;98.70;;;;;;4197731;28;20269;-51
2024/03/27 02:21:36;;;;;;;2.83;1.90;;;5.90;98.70;;;;;;4196547;28;20327;-56
2024/03/27 02:23:45;;;;;;;2.50;1.63;;;6.00;98.60;;;;;;4197832;28;20323;-54
2024/03/27 02:26:24;;;;;;;2.43;1.80;;;6.00;98.70;;;;;;4196095;28;21148;-57
2024/03/27 02:28:25;;;;;;;2.90;2.10;;;6.00;98.80;;;;;;4161840;28;20096;-53
2024/03/27 02:30:26;;;;;;;2.33;1.43;;;6.10;98.80;;;;;;4179500;28;20037;-53
2024/03/27 02:32:28;;;;;;;2.90;1.77;;;6.00;98.70;;;;;;4197596;28;20025;-54
2024/03/27 02:34:29;;;;;;;2.90;1.60;;;6.10;98.80;;;;;;4195885;28;20091;-53
2024/03/27 02:36:30;;;;;;;4.13;1.73;;;6.10;98.60;;;;;;4197463;28;20269;-52
2024/03/27 02:38:31;;;;;;;1.77;1.37;;;6.20;98.40;;;;;;4196180;28;20048;-55
2024/03/27 02:40:33;;;;;;;2.93;1.57;;;6.20;98.30;;;;;;4196922;28;20044;-57
2024/03/27 02:42:34;;;;;;;2.47;1.60;;;6.20;98.10;;;;;;4196261;28;20046;-57
2024/03/27 02:44:35;;;;;;;2.07;1.60;;;6.30;97.90;;;;;;4196210;28;20044;-56
2024/03/27 02:46:37;;;;;;;2.30;1.40;;;6.40;97.80;;;;;;4196532;28;20036;-57
2024/03/27 02:48:38;;;;;;;4.70;2.07;;;6.50;97.60;;;;;;4196238;28;20037;-56
2024/03/27 02:50:39;;;;;;;3.93;1.67;;;6.50;97.50;;;;;;4196894;28;20040;-54
2024/03/27 02:52:40;;;;;;;5.37;1.60;;;6.60;97.40;;;;;;4195719;28;20093;-53
2024/03/27 02:54:42;;;;;;;1.93;1.47;;;6.60;97.20;;;;;;4196903;28;20508;-51
2024/03/27 02:56:43;;;;;;;4.23;1.80;;;6.70;97.20;;;;;;4195820;28;20032;-50
2024/03/27 02:58:44;;;;;;;3.30;1.80;;;6.70;97.20;;;;;;4196954;28;20512;-52
2024/03/27 03:00:46;;;;;;;2.83;1.93;;;6.70;97.10;;;;;;4195485;28;20041;-53
2024/03/27 03:02:47;;;;;;;4.73;1.77;;;6.70;97.10;;;;;;4196459;28;20102;-56
2024/03/27 03:04:48;;;;;;;2.47;1.60;;;6.70;97.00;;;;;;4195441;28;20098;-56
2024/03/27 03:06:49;;;;;;;2.00;1.50;;;6.80;97.00;;;;;;4196627;28;20094;-51
2024/03/27 03:08:51;;;;;;;2.83;1.30;;;6.70;97.00;;;;;;4195684;28;20079;-48
2024/03/27 03:10:53;;;;;;;1.90;1.20;;;6.70;96.90;;;;;;4196292;28;20040;-56
2024/03/27 03:12:54;;;;;;;3.23;1.53;;;6.80;96.80;;;;;;4195388;28;20041;-54
2024/03/27 03:14:55;;;;;;;2.30;1.40;;;6.80;96.80;;;;;;4196026;28;20451;-57
2024/03/27 03:16:56;;;;;;;3.20;1.70;;;6.80;96.70;;;;;;4196474;28;20468;-52
2024/03/27 03:18:58;;;;;;;2.33;1.50;;;6.90;96.70;;;;;;4195713;28;20439;-56
2024/03/27 03:21:03;;;;;;;2.77;1.47;;;6.80;96.60;;;;;;4196334;28;20033;-58
2024/03/27 03:23:04;;;;;;;2.50;1.47;;;6.90;96.60;;;;;;4195093;28;20040;-54
2024/03/27 03:25:06;;;;;;;3.43;1.73;;;6.90;96.60;;;;;;4196399;28;20029;-54
2024/03/27 03:27:07;;;;;;;4.97;1.50;;;6.90;96.50;;;;;;4195177;28;20511;-56
2024/03/27 03:29:08;;;;;;;3.53;1.80;;;6.90;96.60;;;;;;4194820;28;20094;-55
2024/03/27 03:31:10;;;;;;;5.73;1.67;;;6.70;97.40;;;;;;4195106;28;20098;-54
2024/03/27 03:33:12;;;;;;;3.27;1.60;;;6.50;97.90;;;;;;4196033;28;20090;-54
2024/03/27 03:35:14;;;;;;;2.37;1.50;;;6.40;98.10;;;;;;4195242;28;20040;-55
2024/03/27 03:37:16;;;;;;;3.47;1.70;;;6.40;98.20;;;;;;4196022;28;20044;-54
2024/03/27 03:39:17;;;;;;;3.27;1.70;;;6.30;98.40;;;;;;4194543;28;20040;-53
2024/03/27 03:41:18;;;;;;;2.60;1.70;;;6.40;98.20;;;;;;4195971;28;20040;-51
2024/03/27 03:43:20;;;;;;;3.63;1.57;;;6.40;98.30;;;;;;4195147;28;20090;-56
2024/03/27 03:45:21;;;;;;;4.53;1.60;;;6.40;98.20;;;;;;4195821;28;20040;-56
2024/03/27 03:47:22;;;;;;;3.13;1.27;;;6.40;98.30;;;;;;4195672;28;20078;-52
2024/03/27 03:49:23;;;;;;;2.07;1.67;;;6.30;98.30;;;;;;4195216;28;20037;-56
2024/03/27 03:51:24;;;;;;;2.93;1.80;;;6.40;98.20;;;;;;4195860;28;20029;-54
2024/03/27 03:53:26;;;;;;;2.10;1.57;;;6.40;98.20;;;;;;4194832;28;20122;-53
2024/03/27 03:55:27;;;;;;;5.40;1.77;;;6.40;98.00;;;;;;4195901;28;20052;-54
2024/03/27 03:57:28;;;;;;;3.10;1.40;;;6.40;97.80;;;;;;4194795;28;20412;-55
2024/03/27 03:59:29;;;;;;;4.93;1.97;;;6.50;97.70;;;;;;4195511;28;20029;-55
2024/03/27 04:01:31;;;;;;;3.83;1.37;;;6.50;97.80;;;;;;4194685;28;20045;-55
2024/03/27 04:03:32;;;;;;;2.03;1.70;;;6.40;97.90;;;;;;4195683;28;20109;-58
2024/03/27 04:05:33;;;;;;;5.50;1.80;;;6.40;97.80;;;;;;4194443;28;20048;-55
2024/03/27 04:07:35;;;;;;;1.73;1.47;;;6.40;97.70;;;;;;4195947;28;20032;-51
2024/03/27 04:09:36;;;;;;;3.47;2.07;;;6.40;97.60;;;;;;4194322;28;20048;-54
2024/03/27 04:11:37;;;;;;;3.97;1.13;;;6.50;97.40;;;;;;4195958;28;20040;-53
2024/03/27 04:13:38;;;;;;;3.47;1.43;;;6.50;97.30;;;;;;4194213;28;20044;-54
2024/03/27 04:15:41;;;;;;;2.30;1.70;;;6.50;97.10;;;;;;4195233;28;20118;-52
2024/03/27 04:17:42;;;;;;;3.83;1.30;;;6.60;96.90;;;;;;4194970;28;20037;-55
2024/03/27 04:19:43;;;;;;;3.43;1.53;;;6.60;96.80;;;;;;4194767;28;20082;-58
2024/03/27 04:21:44;;;;;;;1.60;1.20;;;6.60;96.70;;;;;;4194629;28;20454;-56
2024/03/27 04:23:46;;;;;;;1.80;1.00;;;6.70;96.50;;;;;;4194804;28;20032;-56
2024/03/27 04:25:48;;;;;;;4.73;1.37;;;6.70;96.50;;;;;;4195286;28;20040;-57
2024/03/27 04:27:50;;;;;;;3.03;1.97;;;6.70;96.50;;;;;;4194464;28;20032;-57
2024/03/27 04:29:56;;;;;;;2.70;1.50;;;6.70;96.40;;;;;;4194981;28;20550;-59
2024/03/27 04:31:57;;;;;;;3.53;2.20;;;6.70;96.40;;;;;;4194246;28;20518;-56
2024/03/27 04:33:58;;;;;;;2.93;1.90;;;6.70;96.40;;;;;;4195447;28;20225;-57
2024/03/27 04:35:59;;;;;;;1.70;1.40;;;6.70;96.20;;;;;;4193433;28;20114;-53
2024/03/27 04:38:01;;;;;;;2.87;1.87;;;6.80;96.00;;;;;;4194605;28;20106;-55
2024/03/27 04:40:12;;;;;;;3.47;1.80;;;6.80;96.10;;;;;;4191698;28;20159;-53
2024/03/27 04:42:15;;;;;;;2.33;1.80;;;6.80;96.10;;;;;;4194856;28;20425;-56
2024/03/27 04:44:17;;;;;;;2.87;1.77;;;6.80;96.20;;;;;;4193171;28;20546;-55
2024/03/27 04:46:19;;;;;;;2.53;1.40;;;6.80;96.20;;;;;;4194730;28;20090;-56
2024/03/27 04:48:20;;;;;;;2.53;1.23;;;6.80;96.10;;;;;;4194434;28;20076;-55
2024/03/27 04:50:22;;;;;;;4.57;1.40;;;6.80;96.30;;;;;;4194369;28;20109;-53
2024/03/27 04:52:23;;;;;;;1.63;1.10;;;6.70;96.40;;;;;;4193665;28;20365;-55
2024/03/27 04:54:24;;;;;;;3.17;1.60;;;6.70;96.60;;;;;;4193673;28;20110;-57
2024/03/27 04:56:27;;;;;;;5.47;2.50;;;6.70;96.30;;;;;;4193733;28;20131;-56
2024/03/27 04:58:28;;;;;;;5.83;1.97;;;6.70;96.40;;;;;;4193638;28;20052;-56
2024/03/27 05:00:30;;;;;;;1.57;1.33;;;6.70;96.10;;;;;;4193777;28;20040;-56
2024/03/27 05:02:31;;;;;;;2.60;1.43;;;6.70;96.20;;;;;;4193160;28;20110;-54
2024/03/27 05:04:32;;;;;;;1.50;1.23;;;6.80;96.10;;;;;;4194568;28;20086;-55
2024/03/27 05:06:39;;;;;;;1.87;1.50;;;6.80;96.00;;;;;;4193430;28;20093;-55
2024/03/27 05:08:40;;;;;;;5.67;1.70;;;6.80;95.90;;;;;;4194684;28;20432;-56
2024/03/27 05:10:41;;;;;;;2.70;1.30;;;6.80;95.90;;;;;;4193742;28;20458;-57
2024/03/27 05:12:42;;;;;;;3.23;1.40;;;6.80;95.90;;;;;;4194439;28;20108;-56
2024/03/27 05:14:44;;;;;;;1.50;1.20;;;6.90;95.60;;;;;;4192949;28;20358;-57
2024/03/27 05:16:46;;;;;;;2.87;1.33;;;6.90;95.70;;;;;;4194228;28;20033;-57
2024/03/27 05:18:47;;;;;;;1.77;1.50;;;6.90;95.70;;;;;;4193379;28;20058;-58
2024/03/27 05:20:48;;;;;;;2.47;1.47;;;6.90;95.80;;;;;;4194705;28;20161;-52
2024/03/27 05:22:51;;;;;;;2.10;1.50;;;6.90;95.70;;;;;;4192459;28;20066;-58
2024/03/27 05:24:52;;;;;;;2.90;1.30;;;6.90;95.80;;;;;;4193552;28;20452;-60
2024/03/27 05:26:53;;;;;;;6.07;1.60;;;6.90;96.00;;;;;;4193403;28;20033;-56
2024/03/27 05:28:56;;;;;;;5.73;1.60;;;6.90;96.00;;;;;;4193979;28;20427;-55
2024/03/27 05:30:57;;;;;;;2.70;1.43;;;6.90;96.00;;;;;;4193831;28;20021;-53
2024/03/27 05:32:58;;;;;;;4.33;1.77;;;6.90;96.00;;;;;;4193361;28;20098;-51
2024/03/27 05:35:00;;;;;;;3.00;1.77;;;6.90;96.00;;;;;;4176741;28;20074;-56
2024/03/27 05:37:01;;;;;;;4.60;2.13;;;7.00;96.00;;;;;;4162085;28;20037;-55
2024/03/27 05:39:02;;;;;;;2.50;1.23;;;7.00;96.00;;;;;;4160515;28;20493;-55
2024/03/27 05:41:04;;;;;;;5.37;1.60;;;7.10;95.90;;;;;;4159832;28;20458;-56
2024/03/27 05:43:05;;;;;;;2.33;1.43;;;7.10;95.70;;;;;;4165088;28;20037;-57
2024/03/27 05:45:07;;;;;;;3.33;2.00;;;7.20;95.50;;;;;;4175795;28;20056;-56
2024/03/27 05:47:08;;;;;;;3.10;2.07;;;7.30;95.20;;;;;;4177259;28;20485;-54
2024/03/27 05:49:09;;;;;;;3.80;1.90;;;7.40;95.10;;;;;;4176208;28;20107;-56
2024/03/27 05:51:14;;;;;;;3.20;1.67;;;7.40;94.70;;;;;;4176795;28;20045;-52
2024/03/27 05:53:15;;;;;;;4.83;2.20;;;7.50;95.20;;;;;;4174242;28;20053;-54
2024/03/27 05:55:16;;;;;;;4.00;2.30;;;7.50;95.50;;;;;;4163437;28;20095;-55
2024/03/27 05:57:18;;;;;;;5.53;2.13;;;7.50;95.60;;;;;;4159990;28;20041;-57
2024/03/27 05:59:19;;;;;;;3.73;2.07;;;7.50;95.60;;;;;;4160251;28;20053;-58
2024/03/27 06:01:21;;;;;;;6.03;2.30;;;7.40;95.70;;;;;;4160995;28;20416;-54
2024/03/27 06:03:22;;;;;;;4.37;1.80;;;7.50;95.40;;;;;;4160887;28;20064;-56
2024/03/27 06:05:23;;;;;;;3.73;1.90;;;7.60;95.40;;;;;;4160321;28;20520;-55
2024/03/27 06:07:24;;;;;;;8.80;2.20;;;7.80;95.10;;;;;;4160093;28;20075;-53
2024/03/27 06:09:26;;;;;;;7.73;2.10;;;7.90;95.10;;;;;;4160683;28;20046;-57
2024/03/27 06:11:27;;;;;;;4.30;1.70;;;8.00;94.70;;;;;;4159580;28;20478;-57
2024/03/27 06:13:28;;;;;;;6.00;1.63;;;8.10;94.60;;;;;;4161149;28;20040;-59
2024/03/27 06:15:32;;;;;;;5.23;2.30;;;8.10;94.80;;;;;;4159730;28;20460;-57
2024/03/27 06:17:34;;;;;;;7.80;1.70;;;8.10;94.70;;;;;;4160453;28;20107;-56
2024/03/27 06:19:35;;;;;;;4.70;1.87;;;8.30;94.50;;;;;;4159542;28;20566;-55
2024/03/27 06:21:36;;;;;;;4.70;2.30;;;8.40;94.50;;;;;;4161085;28;20030;-57
2024/03/27 06:23:38;;;;;;;1.23;0.80;;;8.50;94.30;;;;;;4158142;28;20045;-58
2024/03/27 06:25:40;;;;;;;5.40;1.33;;;8.80;93.60;;;;;;4160912;28;20041;-55
2024/03/27 06:27:42;;;;;;;7.20;1.67;;;9.00;93.00;;;;;;4159134;28;20025;-56
2024/03/27 06:29:43;;;;;;;4.07;1.17;;;9.20;92.50;;;;;;4160163;28;20087;-52
2024/03/27 06:31:44;;;;;;;1.63;1.20;;;9.20;92.30;;;;;;4160275;28;20041;-57
2024/03/27 06:33:45;;;;;;;1.63;1.20;;;9.30;92.00;;;;;;4159795;28;20083;-55
2024/03/27 06:35:47;;;;;;;2.73;1.10;;;9.30;92.10;;;;;;4160676;28;20095;-54
2024/03/27 06:37:48;;;;;;;2.17;1.20;;;9.20;92.20;;;;;;4159943;28;20091;-54
2024/03/27 06:39:49;;;;;;;3.43;1.30;;;9.20;91.90;;;;;;4160659;28;20421;-56
2024/03/27 06:41:51;;;;;;;4.90;1.30;;;9.20;92.10;;;;;;4159075;28;20543;-56
2024/03/27 06:43:52;;;;;;;2.37;1.40;;;9.20;92.00;;;;;;4160396;28;20038;-55
2024/03/27 06:45:54;;;;;;;3.40;1.30;;;9.20;92.00;;;;;;4158923;28;20513;-58
2024/03/27 06:47:55;;;;;;;2.87;1.53;;;9.10;92.20;;;;;;4160596;28;20084;-54
2024/03/27 06:49:57;;;;;;;2.40;1.70;;;9.20;92.20;;;;;;4159093;28;20107;-56
2024/03/27 06:52:00;;;;;;;1.63;1.20;;;9.20;92.30;;;;;;4160706;28;20060;-58
2024/03/27 06:54:01;;;;;;;4.47;1.67;;;9.30;92.10;;;;;;4158841;28;20034;-56
2024/03/27 06:56:05;;;;;;;2.03;1.40;;;9.40;91.90;;;;;;4160317;28;20038;-57
2024/03/27 06:58:06;;;;;;;2.97;1.50;;;9.50;91.80;;;;;;4159287;28;20068;-58
2024/03/27 07:00:09;;;;;;;4.90;1.50;;;9.70;92.00;;;;;;4159959;28;20059;-59
2024/03/27 07:02:11;;;;;;;3.27;1.50;;;9.90;91.90;;;;;;4159309;28;20437;-58
2024/03/27 07:04:12;;;;;;;1.57;1.30;;;10.10;91.40;;;;;;4162791;28;20045;-55
2024/03/27 07:06:13;;;;;;;2.60;1.70;;;10.30;91.10;;;;;;4162779;28;20037;-57
2024/03/27 07:08:15;;;;;;;5.07;1.57;;;10.50;91.30;;;;;;4162726;28;20473;-56
2024/03/27 07:10:16;;;;;;;1.57;1.30;;;10.70;91.20;;;;;;4163590;28;20053;-56
2024/03/27 07:12:17;;;;;;;2.27;1.17;;;10.80;90.40;;;;;;4161705;28;20037;-57
2024/03/27 07:14:19;;;;;;;2.37;1.40;;;10.90;90.10;;;;;;4163506;28;20452;-55
2024/03/27 07:16:20;;;;;;;2.50;1.10;;;11.00;89.40;;;;;;4161683;28;20095;-56
2024/03/27 07:18:22;;;;;;;4.47;0.90;;;11.10;89.60;;;;;;4163460;28;20536;-54
2024/03/27 07:20:23;;;;;;;6.00;0.97;;;11.10;89.30;;;;;;4162230;28;20167;-56
2024/03/27 07:22:25;;;;;;;1.93;1.37;;;11.00;88.80;;;;;;4163506;28;20041;-57
2024/03/27 07:24:26;;;;;;;2.23;1.00;;;11.00;89.40;;;;;;4161485;28;20084;-57
2024/03/27 07:26:27;;;;;;;2.00;0.87;;;11.00;88.90;;;;;;4163075;28;20107;-55
2024/03/27 07:28:28;;;;;;;2.93;1.23;;;10.90;89.20;;;;;;4161211;28;20367;-58
2024/03/27 07:30:30;;;;;;;2.83;0.90;;;10.80;89.30;;;;;;4162650;28;20041;-59
2024/03/27 07:32:32;;;;;;;1.67;1.10;;;10.80;89.90;;;;;;4161641;28;20033;-56
2024/03/27 07:34:33;;;;;;;4.90;1.00;;;10.90;90.10;;;;;;4162225;28;20092;-59
2024/03/27 07:36:34;;;;;;;1.23;0.90;;;10.80;89.50;;;;;;4161826;28;20113;-55
2024/03/27 07:38:35;;;;;;;2.90;1.10;;;10.90;90.00;;;;;;4162121;28;20033;-53
2024/03/27 07:40:36;;;;;;;0.83;0.80;;;10.90;89.60;;;;;;4162577;28;20385;-58
2024/03/27 07:42:38;;;;;;;2.33;1.50;;;11.00;89.70;;;;;;4161701;28;20091;-56
2024/03/27 07:44:39;;;;;;;1.10;0.80;;;11.00;89.70;;;;;;4162958;28;20038;-55
2024/03/27 07:46:40;;;;;;;2.70;0.80;;;11.00;89.40;;;;;;4161425;28;20041;-59
2024/03/27 07:48:41;;;;;;;1.47;0.70;;;11.00;89.20;;;;;;4162909;28;20033;-59
2024/03/27 07:50:43;;;;;;;1.67;1.13;;;11.00;89.10;;;;;;4161755;28;20119;-59
2024/03/27 07:52:44;;;;;;;1.80;1.00;;;10.90;89.20;;;;;;4162828;28;20080;-59
2024/03/27 07:54:46;;;;;;;2.17;1.13;;;11.00;89.50;;;;;;4161216;28;20091;-60
2024/03/27 07:56:47;;;;;;;1.87;1.13;;;11.00;89.10;;;;;;4162885;28;20061;-58
2024/03/27 07:58:48;;;;;;;4.17;1.20;;;11.00;89.20;;;;;;4161460;28;20087;-59
2024/03/27 08:00:50;;;;;;;2.50;0.93;;;11.10;89.50;;;;;;4162151;28;20088;-58
2024/03/27 08:02:52;;;;;;;2.90;0.80;;;11.10;88.90;;;;;;4161253;28;20037;-60
2024/03/27 08:04:53;;;;;;;7.77;1.67;;;11.10;88.70;;;;;;4162969;28;20079;-60
2024/03/27 08:06:54;;;;;;;4.53;1.27;;;11.20;89.00;;;;;;4162065;28;20083;-59
2024/03/27 08:08:56;;;;;;;3.30;0.73;;;11.20;88.70;;;;;;4161810;28;20064;-59
2024/03/27 08:10:58;;;;;;;2.93;1.07;;;11.30;87.80;;;;;;4162402;28;20076;-59
2024/03/27 08:12:59;;;;;;;2.70;0.93;;;11.40;87.60;;;;;;4161506;28;20195;-59
2024/03/27 08:15:00;;;;;;;2.93;1.00;;;11.50;87.00;;;;;;4161932;28;20424;-59
2024/03/27 08:17:01;;;;;;;2.80;0.77;;;11.50;86.90;;;;;;4160895;28;20132;-59
2024/03/27 08:19:03;;;;;;;1.60;1.37;;;11.60;86.60;;;;;;4162579;28;20029;-59
2024/03/27 08:21:04;;;;;;;2.50;0.87;;;11.70;85.30;;;;;;4161317;28;20045;-58
2024/03/27 08:23:06;;;;;;;4.73;1.30;;;11.80;85.50;;;;;;4162002;28;20042;-58
2024/03/27 08:25:07;;;;;;;1.97;0.77;;;11.90;84.60;;;;;;4160902;28;20195;-57
2024/03/27 08:27:08;;;;;;;4.83;0.70;;;11.90;83.40;;;;;;4162122;28;20319;-58
2024/03/27 08:29:10;;;;;;;2.23;1.03;;;11.80;82.10;;;;;;4161047;28;20132;-60
2024/03/27 08:31:11;;;;;;;0.80;0.60;;;11.90;82.80;;;;;;4162264;28;20466;-59
2024/03/27 08:33:12;;;;;;;2.93;1.17;;;11.90;82.40;;;;;;4160718;28;20017;-60
2024/03/27 08:35:13;;;;;;;3.60;1.07;;;12.00;83.10;;;;;;4161689;28;20482;-59
2024/03/27 08:37:14;;;;;;;2.97;1.03;;;12.10;83.00;;;;;;4161224;28;20501;-57
2024/03/27 08:39:16;;;;;;;3.03;0.80;;;12.20;82.80;;;;;;4160949;28;20123;-58
2024/03/27 08:41:17;;;;;;;2.40;0.80;;;12.50;82.50;;;;;;4160975;28;20045;-59
2024/03/27 08:43:19;;;;;;;2.13;1.00;;;12.60;82.30;;;;;;4160587;28;20049;-59
2024/03/27 08:45:20;;;;;;;1.27;0.87;;;12.70;82.20;;;;;;4161009;28;20045;-58
2024/03/27 08:47:22;;;;;;;5.57;1.40;;;13.00;82.10;;;;;;4160594;28;20121;-58
2024/03/27 08:49:23;;;;;;;2.90;1.13;;;13.30;81.20;;;;;;4161817;28;20038;-59
2024/03/27 08:51:24;;;;;;;2.10;0.80;;;13.50;80.90;;;;;;4160903;28;20115;-57
2024/03/27 08:53:25;;;;;;;2.77;0.97;;;13.60;79.50;;;;;;4161878;28;20448;-55
2024/03/27 08:55:27;;;;;;;2.20;0.77;;;13.60;79.80;;;;;;4160950;28;20140;-57
2024/03/27 08:57:28;;;;;;;0.87;0.80;;;13.60;79.00;;;;;;4161368;28;20079;-56
2024/03/27 08:59:29;;;;;;;1.00;0.80;;;13.70;78.60;;;;;;4160701;28;20073;-54
2024/03/27 09:01:31;;;;;;;2.43;1.07;;;13.60;79.10;;;;;;4161422;28;20127;-59
2024/03/27 09:03:32;;;;;;;6.03;1.53;;;13.50;79.30;;;;;;4160237;28;20083;-55
2024/03/27 09:05:33;;;;;;;1.80;0.70;;;13.50;79.80;;;;;;4162040;28;20037;-58
2024/03/27 09:07:34;;;;;;;2.27;0.73;;;13.60;78.50;;;;;;4161400;28;20118;-58
2024/03/27 09:09:36;;;;;;;1.07;0.60;;;13.60;78.00;;;;;;4161485;28;20115;-58
2024/03/27 09:11:37;;;;;;;2.50;0.70;;;13.50;78.20;;;;;;4159883;28;20029;-56
2024/03/27 09:13:41;;;;;;;1.27;0.60;;;13.60;78.10;;;;;;4160329;28;20026;-59
2024/03/27 09:15:42;;;;;;;5.67;0.93;;;13.70;77.60;;;;;;4160955;28;20041;-54
2024/03/27 09:17:43;;;;;;;0.97;0.67;;;13.80;77.30;;;;;;4160153;28;20037;-58
2024/03/27 09:19:45;;;;;;;2.23;0.80;;;14.00;77.70;;;;;;4161341;28;20045;-58
2024/03/27 09:21:46;;;;;;;2.33;0.50;;;14.20;77.30;;;;;;4160569;28;20041;-55
2024/03/27 09:23:47;;;;;;;4.13;0.57;;;14.30;76.80;;;;;;4161298;28;20041;-59
2024/03/27 09:25:59;;;;;;;3.97;0.60;;;14.50;76.70;;;;;;4160822;28;20096;-57
2024/03/27 09:28:00;;;;;;;1.90;1.00;;;14.70;75.50;;;;;;4160952;28;20087;-60
2024/03/27 09:30:01;;;;;;;4.90;0.90;;;14.90;76.30;;;;;;4160373;28;20083;-59
2024/03/27 09:32:03;;;;;;;0.80;0.60;;;15.00;76.00;;;;;;4161823;28;20034;-55
2024/03/27 09:34:04;;;;;;;1.37;0.50;;;15.00;75.50;;;;;;4160265;28;20096;-53
2024/03/27 09:36:12;;;;;;;1.10;0.53;;;15.10;75.30;;;;;;4162114;28;20087;-59
2024/03/27 09:38:14;;;;;;;1.10;0.40;;;15.20;74.00;;;;;;4159901;28;20111;-55
2024/03/27 09:40:15;;;;;;;1.37;0.87;;;15.20;74.40;;;;;;4160771;28;20445;-57
2024/03/27 09:42:16;;;;;;;2.20;0.50;;;15.30;75.00;;;;;;4160232;28;20057;-58
2024/03/27 09:44:20;;;;;;;1.57;0.80;;;15.40;75.00;;;;;;4160720;28;20101;-59
2024/03/27 09:46:22;;;;;;;1.53;0.90;;;15.50;75.30;;;;;;4160924;28;20099;-56
2024/03/27 09:48:26;;;;;;;0.63;0.60;;;15.50;74.80;;;;;;4160353;28;20370;-60
2024/03/27 09:50:29;;;;;;;2.60;0.80;;;15.40;74.30;;;;;;4160790;28;20037;-57
2024/03/27 09:52:33;;;;;;;1.65;0.73;;;15.50;74.10;;;;;;4160649;28;20034;-57
2024/03/27 09:54:35;;;;;;;3.45;0.95;;;15.30;73.70;;;;;;4160969;28;20037;-56
2024/03/27 09:56:37;;;;;;;1.03;0.50;;;15.20;74.10;;;;;;4160103;28;20080;-58
2024/03/27 09:58:39;;;;;;;1.02;0.40;;;15.30;74.60;;;;;;4161049;28;20037;-58
2024/03/27 10:00:41;;;;;;;1.90;0.60;;;15.40;74.20;;;;;;4159636;28;20042;-56
2024/03/27 10:02:42;;;;;;;2.27;0.40;;;15.50;74.30;;;;;;4161549;28;20079;-59
2024/03/27 10:04:44;;;;;;;2.10;0.82;;;15.50;74.40;;;;;;4160118;28;20049;-58
2024/03/27 10:06:45;;;;;;;2.90;1.05;;;15.50;74.40;;;;;;4161665;28;20029;-58
2024/03/27 10:08:47;;;;;;;2.08;0.95;;;15.50;74.40;;;;;;4160272;28;20056;-58
2024/03/27 10:10:50;;;;;;;6.28;0.50;;;15.60;74.20;;;;;;4161610;28;20046;-58
2024/03/27 10:12:52;;;;;;;1.23;0.50;;;15.60;73.60;;;;;;4160310;28;20046;-56
2024/03/27 10:14:54;;;;;;;1.45;0.57;;;15.60;73.80;;;;;;4161032;28;20502;-58
2024/03/27 10:16:55;;;;;;;2.00;0.70;;;15.60;73.60;;;;;;4160024;28;20052;-59
2024/03/27 10:18:56;;;;;;;1.50;0.63;;;15.50;73.20;;;;;;4159961;28;20037;-58
2024/03/27 10:20:57;;;;;;;1.60;0.60;;;15.50;73.50;;;;;;4160449;28;20025;-57
2024/03/27 10:22:59;;;;;;;4.93;0.90;;;15.60;73.60;;;;;;4160045;28;20042;-57
2024/03/27 10:25:04;;;;;;;1.10;0.60;;;15.60;73.40;;;;;;4160638;28;20454;-59
2024/03/27 10:27:07;;;;;;;0.80;0.52;;;15.70;73.20;;;;;;4159450;28;20037;-56
2024/03/27 10:29:08;;;;;;;1.52;0.63;;;15.70;73.40;;;;;;4160568;28;20037;-55
2024/03/27 10:31:10;;;;;;;0.98;0.52;;;15.80;73.40;;;;;;4159655;28;20025;-55
2024/03/27 10:33:11;;;;;;;0.65;0.45;;;15.80;73.20;;;;;;4160051;28;20433;-55
2024/03/27 10:35:14;;;;;;;4.68;0.45;;;15.70;72.70;;;;;;4160028;28;20029;-57
2024/03/27 10:37:17;;;;;;;1.73;0.50;;;15.70;72.40;;;;;;4160519;28;20122;-56
2024/03/27 10:39:22;;;;;;;1.05;0.38;;;15.70;72.80;;;;;;4160575;28;20037;-56